Time;durP1;ratioP1;P1;durP2;ratioP2;P2;SDS_P1;SDS_P2;PMS_P1;PMS_P2;Temp;Humidity;BMP_temperature;BMP_pressure;BME280_temperature;BME280_humidity;BME280_pressure;Samples;Min_cycle;Max_cycle;Signal;HPM_P1;HPM_P2
2024/03/04 00:00:16;;;;;;;108.53;53.38;;;;;;;-146.25;100.00;52469.56;2079122;28;35322;-65
2024/03/04 00:01:18;;;;;;;103.95;52.83;;;;;;;-146.25;100.00;52463.50;2071312;28;35475;-65
2024/03/04 00:02:20;;;;;;;105.60;53.20;;;;;;;-146.25;100.00;52465.53;2071798;28;20038;-65
2024/03/04 00:03:23;;;;;;;106.65;52.53;;;;;;;-146.25;100.00;52449.31;2071348;28;35286;-65
2024/03/04 00:04:25;;;;;;;107.78;52.90;;;;;;;-146.25;100.00;52441.19;2072523;28;36760;-64
2024/03/04 00:05:27;;;;;;;110.70;54.10;;;;;;;-146.25;100.00;52459.44;2080557;28;20034;-64
2024/03/04 00:06:29;;;;;;;108.03;54.72;;;;;;;-146.25;100.00;52461.47;2080920;28;33877;-64
2024/03/04 00:07:31;;;;;;;104.72;54.35;;;;;;;-146.25;100.00;52502.03;2080505;28;29311;-64
2024/03/04 00:08:33;;;;;;;114.15;54.08;;;;;;;-146.25;100.00;52424.97;2080996;28;20973;-65
2024/03/04 00:09:35;;;;;;;109.75;55.60;;;;;;;-146.25;100.00;52435.09;2080716;28;37885;-65
2024/03/04 00:10:36;;;;;;;114.05;55.28;;;;;;;-146.25;100.00;52449.31;2080970;28;35034;-65
2024/03/04 00:11:38;;;;;;;124.20;56.33;;;;;;;-146.25;100.00;52455.38;2081620;28;20053;-65
2024/03/04 00:12:40;;;;;;;116.28;56.17;;;;;;;-146.25;100.00;52439.16;2080780;28;35958;-65
2024/03/04 00:13:42;;;;;;;122.38;57.17;;;;;;;-146.25;100.00;52455.38;2080492;28;34747;-64
2024/03/04 00:14:47;;;;;;;117.38;56.00;;;;;;;-146.25;100.00;52410.78;2081494;28;20945;-64
2024/03/04 00:15:49;;;;;;;128.48;57.92;;;;;;;-146.25;100.00;52465.53;2080968;28;34916;-65
2024/03/04 00:16:51;;;;;;;121.05;58.13;;;;;;;-146.25;100.00;52459.44;2071926;28;30929;-65
2024/03/04 00:17:52;;;;;;;126.45;58.08;;;;;;;-146.25;100.00;52431.06;2072542;28;34150;-65
2024/03/04 00:18:54;;;;;;;136.32;59.38;;;;;;;-146.25;100.00;52441.19;2080784;28;37072;-64
2024/03/04 00:19:56;;;;;;;129.35;58.22;;;;;;;-146.25;100.00;52427.00;2080676;28;35579;-63
2024/03/04 00:20:58;;;;;;;133.35;59.92;;;;;;;-146.25;100.00;52459.44;2081057;28;31131;-65
2024/03/04 00:22:02;;;;;;;129.95;60.17;;;;;;;-146.25;100.00;52414.84;2080869;28;36287;-64
2024/03/04 00:23:05;;;;;;;131.38;59.72;;;;;;;-146.25;100.00;52422.94;2080840;28;32862;-65
2024/03/04 00:24:06;;;;;;;131.60;60.60;;;;;;;-146.25;100.00;52435.09;2080859;28;31696;-65
2024/03/04 00:25:14;;;;;;;137.55;60.78;;;;;;;-146.25;100.00;52427.00;2081578;28;35410;-65
2024/03/04 00:26:15;;;;;;;128.95;61.53;;;;;;;-146.25;100.00;52459.44;2073152;28;34019;-65
2024/03/04 00:27:17;;;;;;;134.57;61.10;;;;;;;-146.25;100.00;52435.09;2073540;28;34497;-65
2024/03/04 00:28:19;;;;;;;137.80;62.30;;;;;;;-146.25;100.00;52483.78;2080853;28;32559;-65
2024/03/04 00:29:21;;;;;;;138.93;63.88;;;;;;;-146.25;100.00;52406.72;2080595;28;31745;-65
2024/03/04 00:30:25;;;;;;;140.80;62.58;;;;;;;-146.25;100.00;52465.53;2080894;28;35888;-65
2024/03/04 00:31:27;;;;;;;137.43;62.08;;;;;;;-146.25;100.00;52449.31;2080681;28;31515;-65
2024/03/04 00:32:31;;;;;;;141.90;62.25;;;;;;;-146.25;100.00;52445.25;2080721;28;32721;-65
2024/03/04 00:33:33;;;;;;;130.23;60.97;;;;;;;-146.25;100.00;52402.66;2080656;28;37030;-64
2024/03/04 00:34:34;;;;;;;142.73;64.63;;;;;;;-146.25;100.00;52459.44;2081237;28;20030;-65
2024/03/04 00:35:39;;;;;;;152.48;65.43;;;;;;;-146.25;100.00;52437.13;2080410;28;35276;-65
2024/03/04 00:36:41;;;;;;;141.85;61.20;;;;;;;-146.25;100.00;52445.25;2080677;28;35489;-64
2024/03/04 00:37:42;;;;;;;147.38;65.97;;;;;;;-146.25;100.00;52465.53;2080729;28;33328;-65
2024/03/04 00:38:44;;;;;;;144.40;64.05;;;;;;;-146.25;100.00;52461.47;2080751;28;35151;-65
2024/03/04 00:39:46;;;;;;;145.77;63.78;;;;;;;-146.25;100.00;52461.47;2081129;28;20045;-64
2024/03/04 00:40:49;;;;;;;144.40;65.45;;;;;;;-146.25;100.00;52427.00;2080861;28;35484;-65
2024/03/04 00:41:50;;;;;;;147.98;65.28;;;;;;;-146.25;100.00;52546.63;2080621;28;37401;-65
2024/03/04 00:42:53;;;;;;;151.75;65.72;;;;;;;-146.25;100.00;52441.19;2081385;28;33668;-65
2024/03/04 00:43:55;;;;;;;147.02;63.17;;;;;;;-146.25;100.00;52412.81;2080295;28;37811;-64
2024/03/04 00:44:59;;;;;;;147.38;67.20;;;;;;;-146.25;100.00;52445.25;2081391;28;20042;-65
2024/03/04 00:46:02;;;;;;;153.60;67.05;;;;;;;-146.25;100.00;52471.59;2080220;28;36025;-65
2024/03/04 00:47:08;;;;;;;156.80;67.80;;;;;;;-146.25;100.00;52398.59;2080476;28;36600;-64
2024/03/04 00:48:12;;;;;;;163.02;65.45;;;;;;;-146.25;100.00;52457.41;2081151;28;20103;-64
2024/03/04 00:49:15;;;;;;;156.00;66.78;;;;;;;-146.25;100.00;52429.03;2071704;28;36303;-64
2024/03/04 00:50:18;;;;;;;156.57;66.50;;;;;;;-146.25;100.00;52453.34;2072307;28;34352;-64
2024/03/04 00:51:19;;;;;;;157.35;67.20;;;;;;;-146.25;100.00;52473.63;2080779;28;34484;-64
2024/03/04 00:52:21;;;;;;;158.35;66.85;;;;;;;-146.25;100.00;52441.19;2080288;28;35111;-65
2024/03/04 00:53:23;;;;;;;158.23;66.20;;;;;;;-146.25;100.00;52473.63;2080755;28;35601;-65
2024/03/04 00:54:25;;;;;;;156.02;66.55;;;;;;;-146.25;100.00;52455.38;2080492;28;33258;-65
2024/03/04 00:55:29;;;;;;;167.82;68.72;;;;;;;-146.25;100.00;52447.28;2080740;28;31625;-64
2024/03/04 00:56:30;;;;;;;163.80;67.93;;;;;;;-146.25;100.00;52441.19;2080501;28;35260;-64
2024/03/04 00:57:36;;;;;;;162.85;68.57;;;;;;;-146.25;100.00;52453.34;2080580;28;35957;-65
2024/03/04 00:58:40;;;;;;;166.32;68.57;;;;;;;-146.25;100.00;52433.06;2080775;28;34158;-65
2024/03/04 00:59:42;;;;;;;168.55;69.93;;;;;;;-146.25;100.00;52445.25;2080239;28;35815;-65
2024/03/04 01:00:47;;;;;;;160.27;66.07;;;;;;;-146.25;100.00;52447.28;2080945;28;30899;-64
2024/03/04 01:01:52;;;;;;;166.77;69.05;;;;;;;-146.25;100.00;52414.84;2080667;28;35178;-64
2024/03/04 01:02:58;;;;;;;157.90;66.57;;;;;;;-146.25;100.00;52433.06;2072373;28;20042;-64
2024/03/04 01:04:00;;;;;;;167.52;67.40;;;;;;;-146.25;100.00;52473.63;2073204;28;34123;-64
2024/03/04 01:05:02;;;;;;;158.82;68.72;;;;;;;-146.25;100.00;52433.06;2080639;28;31861;-64
2024/03/04 01:06:04;;;;;;;174.20;71.63;;;;;;;-146.25;100.00;52429.03;2080467;28;37835;-64
2024/03/04 01:07:06;;;;;;;165.25;70.40;;;;;;;-146.25;100.00;52406.72;2080861;28;30981;-64
2024/03/04 01:08:10;;;;;;;165.85;70.03;;;;;;;-146.25;100.00;52469.56;2080788;28;33451;-64
2024/03/04 01:09:12;;;;;;;174.68;70.45;;;;;;;-146.25;100.00;52451.31;2079908;28;34758;-63
2024/03/04 01:10:14;;;;;;;174.13;71.78;;;;;;;-146.25;100.00;52443.22;2080639;28;33306;-63
2024/03/04 01:11:16;;;;;;;174.07;70.70;;;;;;;-146.25;100.00;52477.69;2080672;28;35395;-64
2024/03/04 01:12:18;;;;;;;170.95;70.22;;;;;;;-146.25;100.00;52473.63;2081170;28;33456;-64
2024/03/04 01:13:21;;;;;;;170.30;67.75;;;;;;;-146.25;100.00;52445.25;2080924;28;30158;-65
2024/03/04 01:14:25;;;;;;;175.50;72.75;;;;;;;-146.25;100.00;52510.13;2071782;28;34761;-64
2024/03/04 01:15:30;;;;;;;179.57;72.25;;;;;;;-146.25;100.00;52445.25;2071982;28;35586;-64
2024/03/04 01:16:33;;;;;;;178.38;70.90;;;;;;;-146.25;100.00;52461.47;2079956;28;33249;-65
2024/03/04 01:17:36;;;;;;;178.77;71.93;;;;;;;-146.25;100.00;52441.19;2081050;28;20069;-64
2024/03/04 01:18:38;;;;;;;177.73;72.50;;;;;;;-146.25;100.00;52469.56;2080583;28;36027;-64
2024/03/04 01:19:46;;;;;;;177.25;70.60;;;;;;;-146.25;100.00;52473.63;2080635;28;32500;-63
2024/03/04 01:20:48;;;;;;;160.98;68.40;;;;;;;-146.25;100.00;52433.06;2080965;28;31282;-64
2024/03/04 01:21:50;;;;;;;169.43;68.10;;;;;;;-146.25;100.00;52400.63;2080400;28;36479;-64
2024/03/04 01:22:53;;;;;;;169.10;71.05;;;;;;;-146.25;100.00;52449.31;2080503;28;32703;-64
2024/03/04 01:23:56;;;;;;;180.55;73.07;;;;;;;-146.25;100.00;52420.91;2080653;28;30877;-65
2024/03/04 01:24:58;;;;;;;180.90;71.65;;;;;;;-146.25;100.00;52459.44;2080501;28;33428;-64
2024/03/04 01:26:00;;;;;;;181.43;70.00;;;;;;;-146.25;100.00;52451.31;2080463;28;32669;-64
2024/03/04 01:27:02;;;;;;;174.27;71.32;;;;;;;-146.25;100.00;52465.53;2080204;28;36652;-64
2024/03/04 01:28:04;;;;;;;185.07;72.00;;;;;;;-146.25;100.00;52469.56;2080672;28;31494;-65
2024/03/04 01:29:08;;;;;;;178.52;70.70;;;;;;;-146.25;100.00;52422.94;2080376;28;35728;-65
2024/03/04 01:30:14;;;;;;;177.98;72.35;;;;;;;-146.25;100.00;52457.41;2080391;28;35132;-64
2024/03/04 01:31:18;;;;;;;176.45;70.43;;;;;;;-146.25;100.00;52461.47;2080467;28;33184;-63
2024/03/04 01:32:21;;;;;;;171.82;70.22;;;;;;;-146.25;100.00;52445.25;2079846;28;34464;-65
2024/03/04 01:33:23;;;;;;;180.10;72.15;;;;;;;-146.25;100.00;52463.50;2071543;28;32401;-64
2024/03/04 01:34:25;;;;;;;175.25;71.30;;;;;;;-146.25;100.00;52459.44;2072202;28;33518;-62
2024/03/04 01:35:27;;;;;;;173.13;71.13;;;;;;;-146.25;100.00;52516.22;2080237;28;35952;-64
2024/03/04 01:36:29;;;;;;;175.77;70.75;;;;;;;-146.25;100.00;52435.09;2080635;28;34812;-64
2024/03/04 01:37:31;;;;;;;181.30;71.43;;;;;;;-146.25;100.00;52437.13;2080820;28;20156;-65
2024/03/04 01:38:34;;;;;;;172.55;70.32;;;;;;;-146.25;100.00;52437.13;2071452;28;34670;-64
2024/03/04 01:39:36;;;;;;;179.00;71.32;;;;;;;-146.25;100.00;52424.97;2071735;28;33247;-64
2024/03/04 01:40:37;;;;;;;169.98;69.47;;;;;;;-146.25;100.00;52418.88;2080403;28;36863;-64
2024/03/04 01:41:39;;;;;;;174.68;70.72;;;;;;;-146.25;100.00;52453.34;2071660;28;37266;-65
2024/03/04 01:42:44;;;;;;;178.95;71.53;;;;;;;-146.25;100.00;52441.19;2072509;28;20128;-65
2024/03/04 01:43:46;;;;;;;175.85;68.60;;;;;;;-146.25;100.00;52467.56;2080500;28;34392;-64
2024/03/04 01:44:48;;;;;;;182.38;70.40;;;;;;;-146.25;100.00;52485.81;2080283;28;32456;-64
2024/03/04 01:45:50;;;;;;;174.25;70.82;;;;;;;-146.25;100.00;52451.31;2071390;28;34746;-64
2024/03/04 01:46:51;;;;;;;178.43;70.50;;;;;;;-146.25;100.00;52469.56;2071326;28;36820;-64
2024/03/04 01:48:02;;;;;;;189.55;73.18;;;;;;;-146.25;100.00;52497.97;2080384;28;34181;-64
2024/03/04 01:49:04;;;;;;;181.20;70.75;;;;;;;-146.25;100.00;52453.34;2080638;28;34322;-64
2024/03/04 01:50:09;;;;;;;177.90;70.40;;;;;;;-146.25;100.00;52437.13;2079822;28;36625;-64
2024/03/04 01:51:11;;;;;;;169.15;68.53;;;;;;;-146.25;100.00;52457.41;2080265;28;34761;-65
2024/03/04 01:52:15;;;;;;;176.75;69.40;;;;;;;-146.25;100.00;52463.50;2071580;28;31527;-64
2024/03/04 01:53:19;;;;;;;174.48;70.57;;;;;;;-146.25;100.00;52467.56;2071573;28;31650;-64
2024/03/04 01:54:22;;;;;;;182.35;73.00;;;;;;;-146.25;100.00;52437.13;2080213;28;33311;-65
2024/03/04 01:55:32;;;;;;;173.57;69.35;;;;;;;-146.25;100.00;52449.31;2071744;28;20141;-64
2024/03/04 01:56:34;;;;;;;175.18;71.75;;;;;;;-146.25;100.00;52469.56;2071858;28;20042;-65
2024/03/04 01:57:37;;;;;;;186.90;71.82;;;;;;;-146.25;100.00;52445.25;2072037;28;25855;-65
2024/03/04 01:58:47;;;;;;;177.85;72.28;;;;;;;-146.25;100.00;52491.88;2063707;28;35369;-65
2024/03/04 01:59:51;;;;;;;177.52;72.15;;;;;;;-146.25;100.00;52445.25;2073865;28;20148;-65
2024/03/04 02:00:55;;;;;;;189.40;72.28;;;;;;;-146.25;100.00;52449.31;2081072;28;20084;-64
2024/03/04 02:02:00;;;;;;;179.55;69.90;;;;;;;-146.25;100.00;52455.38;2080554;28;20034;-65
2024/03/04 02:03:02;;;;;;;178.18;71.18;;;;;;;-146.25;100.00;52437.13;2080866;28;35000;-65
2024/03/04 02:04:04;;;;;;;181.95;73.15;;;;;;;-146.25;100.00;52435.09;2080264;28;36884;-64
2024/03/04 02:05:09;;;;;;;181.10;71.93;;;;;;;-146.25;100.00;52429.03;2080118;28;24969;-64
2024/03/04 02:06:11;;;;;;;182.52;71.72;;;;;;;-146.25;100.00;52453.34;2071072;28;30694;-64
2024/03/04 02:07:16;;;;;;;179.35;74.00;;;;;;;-146.25;100.00;52477.69;2071409;28;35203;-65
2024/03/04 02:08:19;;;;;;;180.32;72.28;;;;;;;-146.25;100.00;52453.34;2080121;28;20046;-65
2024/03/04 02:09:26;;;;;;;191.35;72.38;;;;;;;-146.25;100.00;52457.41;2079517;28;33114;-65
2024/03/04 02:10:29;;;;;;;194.35;72.90;;;;;;;-146.25;100.00;52453.34;2071650;28;32462;-65
2024/03/04 02:11:33;;;;;;;193.15;72.78;;;;;;;-146.25;100.00;52463.50;2072366;28;30962;-64
2024/03/04 02:12:35;;;;;;;181.38;73.25;;;;;;;-146.25;100.00;52502.03;2080109;28;34819;-65
2024/03/04 02:13:37;;;;;;;184.73;70.68;;;;;;;-146.25;100.00;52453.34;2071892;28;20927;-65
2024/03/04 02:14:40;;;;;;;180.80;72.88;;;;;;;-146.25;100.00;52453.34;2063297;28;40979;-65
2024/03/04 02:15:41;;;;;;;187.60;73.95;;;;;;;-146.25;100.00;52471.59;2071223;28;33846;-65
2024/03/04 02:16:44;;;;;;;194.48;75.03;;;;;;;-146.25;100.00;52429.03;2080079;28;37313;-65
2024/03/04 02:17:46;;;;;;;180.98;72.15;;;;;;;-146.25;100.00;52420.91;2071652;28;21482;-65
2024/03/04 02:18:48;;;;;;;191.02;73.38;;;;;;;-146.25;100.00;52461.47;2071636;28;37326;-65
2024/03/04 02:19:50;;;;;;;183.27;72.80;;;;;;;-146.25;100.00;52418.88;2080626;28;32168;-65
2024/03/04 02:20:57;;;;;;;185.63;71.38;;;;;;;-146.25;100.00;52455.38;2071388;28;33517;-65
2024/03/04 02:22:04;;;;;;;185.95;73.07;;;;;;;-146.25;100.00;52451.31;2064442;28;36503;-65
2024/03/04 02:23:11;;;;;;;181.38;70.97;;;;;;;-146.25;100.00;52461.47;2064901;28;34891;-65
2024/03/04 02:24:14;;;;;;;179.88;69.82;;;;;;;-146.25;100.00;52451.31;2064962;28;36050;-64
2024/03/04 02:25:16;;;;;;;189.20;74.07;;;;;;;-146.25;100.00;52445.25;2072108;28;32950;-65
2024/03/04 02:26:18;;;;;;;179.45;70.15;;;;;;;-146.25;100.00;52449.31;2079882;28;34744;-65
2024/03/04 02:27:22;;;;;;;187.20;74.05;;;;;;;-146.25;100.00;52437.13;2080205;28;34692;-65
2024/03/04 02:28:27;;;;;;;188.40;73.15;;;;;;;-146.25;100.00;52457.41;2079374;28;33181;-65
2024/03/04 02:29:28;;;;;;;205.93;74.30;;;;;;;-146.25;100.00;52493.91;2079830;28;38332;-65
2024/03/04 02:30:32;;;;;;;194.70;73.00;;;;;;;-146.25;100.00;52479.72;2080107;28;31944;-64
2024/03/04 02:31:34;;;;;;;201.43;73.72;;;;;;;-146.25;100.00;52453.34;2071098;28;32538;-64
2024/03/04 02:32:36;;;;;;;185.95;72.30;;;;;;;-146.25;100.00;52433.06;2071037;28;37523;-65
2024/03/04 02:33:42;;;;;;;178.18;71.03;;;;;;;-146.25;100.00;52451.31;2071269;28;31320;-65
2024/03/04 02:34:45;;;;;;;189.65;72.13;;;;;;;-146.25;100.00;52443.22;2072025;28;31754;-64
2024/03/04 02:35:49;;;;;;;193.60;72.78;;;;;;;-146.25;100.00;52416.84;2079693;28;36354;-64
2024/03/04 02:36:51;;;;;;;181.95;70.93;;;;;;;-146.25;100.00;52477.69;2080306;28;20045;-64
2024/03/04 02:37:54;;;;;;;187.00;71.20;;;;;;;-146.25;100.00;52463.50;2072826;28;20101;-64
2024/03/04 02:38:56;;;;;;;191.48;72.53;;;;;;;-146.25;100.00;52467.56;2071648;28;36803;-65
2024/03/04 02:40:00;;;;;;;194.02;72.82;;;;;;;-146.25;100.00;52520.28;2072046;28;33632;-65
2024/03/04 02:41:04;;;;;;;189.88;69.53;;;;;;;-146.25;100.00;52469.56;2062841;28;31118;-64
2024/03/04 02:42:06;;;;;;;192.63;74.07;;;;;;;-146.25;100.00;52500.00;2064239;28;33669;-64
2024/03/04 02:43:08;;;;;;;187.40;73.00;;;;;;;-146.25;100.00;52441.19;2072092;28;20038;-64
2024/03/04 02:44:10;;;;;;;199.95;74.55;;;;;;;-146.25;100.00;52471.59;2072507;28;20100;-65
2024/03/04 02:45:11;;;;;;;199.75;72.03;;;;;;;-146.25;100.00;52469.56;2071649;28;30124;-64
2024/03/04 02:46:16;;;;;;;205.00;74.38;;;;;;;-146.25;100.00;52469.56;2063269;28;34287;-65
2024/03/04 02:47:18;;;;;;;200.10;73.15;;;;;;;-146.25;100.00;52453.34;2064380;28;20047;-65
2024/03/04 02:48:23;;;;;;;203.38;74.53;;;;;;;-146.25;100.00;52451.31;2072339;28;20045;-65
2024/03/04 02:49:25;;;;;;;202.65;75.10;;;;;;;-146.25;100.00;52475.66;2071705;28;32739;-65
2024/03/04 02:50:27;;;;;;;207.77;76.00;;;;;;;-146.25;100.00;52489.84;2072316;28;20047;-65
2024/03/04 02:51:29;;;;;;;177.30;67.70;;;;;;;-146.25;100.00;52455.38;2071943;28;37900;-64
2024/03/04 02:52:31;;;;;;;169.25;67.20;;;;;;;-146.25;100.00;52487.81;2071924;28;33617;-65
2024/03/04 02:53:33;;;;;;;184.25;71.55;;;;;;;-146.25;100.00;52471.59;2071297;28;36923;-64
2024/03/04 02:54:37;;;;;;;202.88;74.32;;;;;;;-146.25;100.00;52441.19;2072061;28;35977;-65
2024/03/04 02:55:39;;;;;;;188.35;71.82;;;;;;;-146.25;100.00;52465.53;2063467;28;20845;-65
2024/03/04 02:56:41;;;;;;;176.55;68.53;;;;;;;-146.25;100.00;52473.63;2063006;28;35118;-65
2024/03/04 02:57:43;;;;;;;188.43;71.15;;;;;;;-146.25;100.00;52445.25;2062673;28;33886;-64
2024/03/04 02:58:45;;;;;;;195.32;75.05;;;;;;;-146.25;100.00;52469.56;2055191;28;34709;-64
2024/03/04 02:59:46;;;;;;;189.73;73.85;;;;;;;-146.25;100.00;52453.34;2062914;28;35258;-64
2024/03/04 03:00:48;;;;;;;197.05;73.30;;;;;;;-146.25;100.00;52455.38;2076665;28;34907;-64
2024/03/04 03:01:50;;;;;;;203.88;75.25;;;;;;;-146.25;100.00;52445.25;2079698;28;39098;-63
2024/03/04 03:02:52;;;;;;;196.70;73.30;;;;;;;-146.25;100.00;52453.34;2079465;28;32034;-65
2024/03/04 03:03:56;;;;;;;177.85;66.90;;;;;;;-146.25;100.00;52433.06;2079957;28;35302;-65
2024/03/04 03:04:58;;;;;;;184.70;67.55;;;;;;;-146.25;100.00;52459.44;2062957;28;37643;-64
2024/03/04 03:06:00;;;;;;;182.02;68.85;;;;;;;-146.25;100.00;52461.47;2063306;28;37498;-65
2024/03/04 03:07:01;;;;;;;185.35;69.95;;;;;;;-146.25;100.00;52471.59;2079744;28;34771;-65
2024/03/04 03:08:04;;;;;;;195.52;72.72;;;;;;;-146.25;100.00;52465.53;2079901;28;35442;-64
2024/03/04 03:09:08;;;;;;;197.80;70.18;;;;;;;-146.25;100.00;52475.66;2079877;28;32775;-63
2024/03/04 03:10:12;;;;;;;177.10;68.45;;;;;;;-146.25;100.00;52455.38;2079646;28;33815;-64
2024/03/04 03:11:14;;;;;;;210.23;73.47;;;;;;;-146.25;100.00;52439.16;2079776;28;35648;-65
2024/03/04 03:12:17;;;;;;;218.60;73.88;;;;;;;-146.25;100.00;52475.66;2080477;28;20133;-64
2024/03/04 03:13:22;;;;;;;220.57;74.45;;;;;;;-146.25;100.00;52487.81;2080146;28;26519;-65
2024/03/04 03:14:26;;;;;;;222.43;75.22;;;;;;;-146.25;100.00;52479.72;2079654;28;32865;-64
2024/03/04 03:15:30;;;;;;;218.95;69.80;;;;;;;-146.25;100.00;52473.63;2079208;28;34759;-65
2024/03/04 03:16:32;;;;;;;224.05;72.07;;;;;;;-146.25;100.00;52447.28;2080252;28;20046;-64
2024/03/04 03:17:37;;;;;;;202.05;69.07;;;;;;;-146.25;100.00;52481.75;2079367;28;32485;-64
2024/03/04 03:18:39;;;;;;;233.10;70.53;;;;;;;-146.25;100.00;52431.06;2079446;28;33501;-64
2024/03/04 03:19:40;;;;;;;198.63;72.88;;;;;;;-146.25;100.00;52491.88;2070786;28;33840;-64
2024/03/04 03:20:42;;;;;;;197.95;69.95;;;;;;;-146.25;100.00;52449.31;2071094;28;37715;-65
2024/03/04 03:21:44;;;;;;;217.23;70.57;;;;;;;-146.25;100.00;52467.56;2080708;28;20120;-65
2024/03/04 03:22:48;;;;;;;199.93;67.72;;;;;;;-146.25;100.00;52475.66;2079578;28;35400;-64
2024/03/04 03:23:50;;;;;;;196.48;70.00;;;;;;;-146.25;100.00;52475.66;2079686;28;33953;-64
2024/03/04 03:24:54;;;;;;;214.50;68.70;;;;;;;-146.25;100.00;52473.63;2079401;28;34100;-64
2024/03/04 03:25:56;;;;;;;210.55;70.20;;;;;;;-146.25;100.00;52453.34;2070477;28;38132;-63
2024/03/04 03:26:58;;;;;;;208.70;68.05;;;;;;;-146.25;100.00;52473.63;2071304;28;32293;-64
2024/03/04 03:28:00;;;;;;;240.45;71.65;;;;;;;-146.25;100.00;52532.44;2071033;28;35251;-64
2024/03/04 03:29:03;;;;;;;247.52;73.93;;;;;;;-146.25;100.00;52467.56;2062928;28;30982;-64
2024/03/04 03:30:08;;;;;;;239.43;75.65;;;;;;;-146.25;100.00;52485.81;2071072;28;32034;-65
2024/03/04 03:31:11;;;;;;;219.32;72.97;;;;;;;-146.25;100.00;52485.81;2079780;28;37811;-64
2024/03/04 03:32:13;;;;;;;224.18;74.35;;;;;;;-146.25;100.00;52473.63;2078604;28;33423;-65
2024/03/04 03:33:14;;;;;;;220.85;73.25;;;;;;;-146.25;100.00;52453.34;2079468;28;33936;-65
2024/03/04 03:34:17;;;;;;;241.23;76.82;;;;;;;-146.25;100.00;52455.38;2079074;28;37039;-65
2024/03/04 03:35:18;;;;;;;274.25;79.95;;;;;;;-146.25;100.00;52439.16;2079427;28;34012;-64
2024/03/04 03:36:23;;;;;;;254.15;77.57;;;;;;;-146.25;100.00;52510.13;2080399;28;20042;-64
2024/03/04 03:37:25;;;;;;;222.00;72.60;;;;;;;-146.25;100.00;52457.41;2079751;28;32170;-65
2024/03/04 03:38:27;;;;;;;233.90;74.47;;;;;;;-146.25;100.00;52479.72;2079908;28;29536;-64
2024/03/04 03:39:29;;;;;;;235.10;73.00;;;;;;;-146.25;100.00;52445.25;2079421;28;35046;-64
2024/03/04 03:40:31;;;;;;;237.73;76.95;;;;;;;-146.25;100.00;52467.56;2078928;28;33444;-64
2024/03/04 03:41:40;;;;;;;243.43;78.57;;;;;;;-146.25;100.00;52489.84;2079470;28;35945;-65
2024/03/04 03:42:43;;;;;;;246.90;75.43;;;;;;;-146.25;100.00;52453.34;2079753;28;33532;-64
2024/03/04 03:43:45;;;;;;;225.70;75.53;;;;;;;-146.25;100.00;52483.78;2079568;28;32682;-64
2024/03/04 03:44:47;;;;;;;234.73;74.85;;;;;;;-146.25;100.00;52514.19;2079522;28;37226;-64
2024/03/04 03:45:49;;;;;;;225.13;75.75;;;;;;;-146.25;100.00;52506.06;2080168;28;20093;-65
2024/03/04 03:46:53;;;;;;;221.73;73.97;;;;;;;-146.25;100.00;52479.72;2080307;28;20046;-65
2024/03/04 03:47:55;;;;;;;235.13;76.93;;;;;;;-146.25;100.00;52471.59;2079450;28;33125;-64
2024/03/04 03:48:59;;;;;;;241.43;75.05;;;;;;;-146.25;100.00;52453.34;2071873;28;20915;-65
2024/03/04 03:50:03;;;;;;;242.82;76.03;;;;;;;-146.25;100.00;52481.75;2071013;28;39387;-65
2024/03/04 03:51:05;;;;;;;234.38;74.65;;;;;;;-146.25;100.00;52502.03;2079439;28;33594;-65
2024/03/04 03:52:07;;;;;;;216.15;71.13;;;;;;;-146.25;100.00;52475.66;2079563;28;32101;-64
2024/03/04 03:53:08;;;;;;;210.93;71.38;;;;;;;-146.25;100.00;52479.72;2079579;28;33302;-65
2024/03/04 03:54:10;;;;;;;239.52;72.72;;;;;;;-146.25;100.00;52489.84;2079710;28;31662;-63
2024/03/04 03:55:12;;;;;;;243.38;74.53;;;;;;;-146.25;100.00;52457.41;2079331;28;35425;-64
2024/03/04 03:56:14;;;;;;;207.80;72.97;;;;;;;-146.25;100.00;52461.47;2079699;28;31261;-64
2024/03/04 03:57:15;;;;;;;209.18;74.90;;;;;;;-146.25;100.00;52493.91;2079371;28;37642;-65
2024/03/04 03:58:18;;;;;;;210.27;71.88;;;;;;;-146.25;100.00;52471.59;2080272;28;20101;-64
2024/03/04 03:59:20;;;;;;;197.60;71.05;;;;;;;-146.25;100.00;52491.88;2079365;28;36682;-65
2024/03/04 04:00:21;;;;;;;213.85;72.47;;;;;;;-146.25;100.00;52465.53;2079558;28;35643;-64
2024/03/04 04:01:23;;;;;;;221.50;70.45;;;;;;;-146.25;100.00;52455.38;2070287;28;33213;-64
2024/03/04 04:02:25;;;;;;;197.73;69.25;;;;;;;-146.25;100.00;52469.56;2070829;28;30986;-64
2024/03/04 04:03:28;;;;;;;202.48;69.00;;;;;;;-146.25;100.00;52457.41;2079369;28;36834;-65
2024/03/04 04:04:33;;;;;;;187.85;66.70;;;;;;;-146.25;100.00;52433.06;2079637;28;34751;-65
2024/03/04 04:05:35;;;;;;;182.95;65.15;;;;;;;-146.25;100.00;52465.53;2079299;28;34879;-65
2024/03/04 04:06:37;;;;;;;197.48;64.82;;;;;;;-146.25;100.00;52453.34;2079470;28;35158;-65
2024/03/04 04:07:39;;;;;;;210.38;65.65;;;;;;;-146.25;100.00;52437.13;2070601;28;36778;-65
2024/03/04 04:08:41;;;;;;;200.18;64.32;;;;;;;-146.25;100.00;52429.03;2071113;28;35766;-65
2024/03/04 04:09:43;;;;;;;171.07;61.47;;;;;;;-146.25;100.00;52487.81;2079323;28;36046;-65
2024/03/04 04:10:45;;;;;;;160.25;61.22;;;;;;;-146.25;100.00;52485.81;2079470;28;34390;-65
2024/03/04 04:11:49;;;;;;;172.57;61.50;;;;;;;-146.25;100.00;52461.47;2079912;28;32978;-64
2024/03/04 04:12:53;;;;;;;160.40;59.78;;;;;;;-146.25;100.00;52465.53;2079058;28;36562;-65
2024/03/04 04:13:55;;;;;;;167.80;60.03;;;;;;;-146.25;100.00;52500.00;2070452;28;35315;-65
2024/03/04 04:14:57;;;;;;;161.05;58.90;;;;;;;-146.25;100.00;52512.16;2071081;28;34345;-64
2024/03/04 04:16:01;;;;;;;157.02;61.20;;;;;;;-146.25;100.00;52473.63;2079640;28;33278;-64
2024/03/04 04:17:04;;;;;;;144.02;58.95;;;;;;;-146.25;100.00;52479.72;2079299;28;38449;-64
2024/03/04 04:18:06;;;;;;;161.13;60.65;;;;;;;-146.25;100.00;52469.56;2079170;28;34047;-64
2024/03/04 04:19:08;;;;;;;127.35;56.58;;;;;;;-146.25;100.00;52445.25;2079643;28;34641;-64
2024/03/04 04:20:12;;;;;;;127.60;56.67;;;;;;;-146.25;100.00;52469.56;2079913;28;21660;-64
2024/03/04 04:21:13;;;;;;;136.30;56.72;;;;;;;-146.25;100.00;52429.03;2079164;28;32428;-64
2024/03/04 04:22:16;;;;;;;141.32;58.85;;;;;;;-146.25;100.00;52502.03;2079518;28;37138;-64
2024/03/04 04:23:19;;;;;;;130.55;57.25;;;;;;;-146.25;100.00;52510.13;2079925;28;20045;-64
2024/03/04 04:24:20;;;;;;;132.18;57.55;;;;;;;-146.25;100.00;52481.75;2079604;28;34269;-65
2024/03/04 04:25:22;;;;;;;132.32;56.67;;;;;;;-146.25;100.00;52441.19;2079336;28;32306;-65
2024/03/04 04:26:25;;;;;;;114.03;52.95;;;;;;;-146.25;100.00;52455.38;2079518;28;29234;-63
2024/03/04 04:27:27;;;;;;;123.35;54.10;;;;;;;-146.25;100.00;52465.53;2079200;28;37359;-65
2024/03/04 04:28:28;;;;;;;130.68;57.67;;;;;;;-146.25;100.00;52473.63;2071559;28;20811;-63
2024/03/04 04:29:30;;;;;;;130.57;56.08;;;;;;;-146.25;100.00;52491.88;2070816;28;37919;-65
2024/03/04 04:30:33;;;;;;;121.43;55.25;;;;;;;-146.25;100.00;52439.16;2079403;28;31344;-64
2024/03/04 04:31:35;;;;;;;128.43;55.33;;;;;;;-146.25;100.00;52469.56;2070622;28;30818;-64
2024/03/04 04:32:37;;;;;;;124.38;55.67;;;;;;;-146.25;100.00;52502.03;2062491;28;39205;-64
2024/03/04 04:33:39;;;;;;;110.25;52.67;;;;;;;-146.25;100.00;52471.59;2071939;28;20162;-64
2024/03/04 04:34:41;;;;;;;114.90;53.45;;;;;;;-146.25;100.00;52479.72;2079465;28;36065;-65
2024/03/04 04:35:44;;;;;;;115.80;54.83;;;;;;;-146.25;100.00;52500.00;2079402;28;35120;-64